sensor_id;sensor_type;location;lat;lon;timestamp;P1;durP1;ratioP1;P2;durP2;ratioP2
59907;SDS011;61804;54.926;73.496;2023-02-01T00:01:50;22.15;;;12.00;;
59907;SDS011;61804;54.926;73.496;2023-02-01T00:04:18;12.93;;;9.80;;
59907;SDS011;61804;54.926;73.496;2023-02-01T00:06:45;25.35;;;13.98;;
59907;SDS011;61804;54.926;73.496;2023-02-01T00:09:13;39.15;;;23.75;;
59907;SDS011;61804;54.926;73.496;2023-02-01T00:11:51;39.38;;;23.63;;
59907;SDS011;61804;54.926;73.496;2023-02-01T00:14:19;49.55;;;33.33;;
59907;SDS011;61804;54.926;73.496;2023-02-01T00:16:58;31.65;;;16.75;;
59907;SDS011;61804;54.926;73.496;2023-02-01T00:19:25;41.83;;;29.02;;
59907;SDS011;61804;54.926;73.496;2023-02-01T00:21:53;49.75;;;24.65;;
59907;SDS011;61804;54.926;73.496;2023-02-01T00:24:21;20.73;;;9.15;;
59907;SDS011;61804;54.926;73.496;2023-02-01T00:26:48;14.30;;;7.95;;
59907;SDS011;61804;54.926;73.496;2023-02-01T00:29:28;16.08;;;8.52;;
59907;SDS011;61804;54.926;73.496;2023-02-01T00:31:55;14.65;;;9.52;;
59907;SDS011;61804;54.926;73.496;2023-02-01T00:34:29;20.08;;;14.27;;
59907;SDS011;61804;54.926;73.496;2023-02-01T00:36:56;37.85;;;21.55;;
59907;SDS011;61804;54.926;73.496;2023-02-01T00:39:29;68.38;;;39.85;;
59907;SDS011;61804;54.926;73.496;2023-02-01T00:41:59;60.60;;;26.40;;
59907;SDS011;61804;54.926;73.496;2023-02-01T00:44:37;38.20;;;24.23;;
59907;SDS011;61804;54.926;73.496;2023-02-01T00:47:13;30.92;;;15.88;;
59907;SDS011;61804;54.926;73.496;2023-02-01T00:49:41;17.42;;;13.48;;
59907;SDS011;61804;54.926;73.496;2023-02-01T00:52:08;30.80;;;14.95;;
59907;SDS011;61804;54.926;73.496;2023-02-01T00:54:36;17.75;;;10.45;;
59907;SDS011;61804;54.926;73.496;2023-02-01T00:57:14;14.65;;;9.70;;
59907;SDS011;61804;54.926;73.496;2023-02-01T00:59:42;16.70;;;9.75;;
59907;SDS011;61804;54.926;73.496;2023-02-01T01:02:20;14.43;;;9.02;;
59907;SDS011;61804;54.926;73.496;2023-02-01T01:04:53;18.27;;;10.93;;
59907;SDS011;61804;54.926;73.496;2023-02-01T01:07:21;165.63;;;79.00;;
59907;SDS011;61804;54.926;73.496;2023-02-01T01:09:49;44.33;;;19.40;;
59907;SDS011;61804;54.926;73.496;2023-02-01T01:12:16;23.52;;;10.43;;
59907;SDS011;61804;54.926;73.496;2023-02-01T01:14:56;14.65;;;10.18;;
59907;SDS011;61804;54.926;73.496;2023-02-01T01:17:24;13.98;;;8.45;;
59907;SDS011;61804;54.926;73.496;2023-02-01T01:19:53;20.90;;;10.10;;
59907;SDS011;61804;54.926;73.496;2023-02-01T01:22:23;15.65;;;12.65;;
59907;SDS011;61804;54.926;73.496;2023-02-01T01:24:50;24.73;;;16.83;;
59907;SDS011;61804;54.926;73.496;2023-02-01T01:27:27;39.30;;;26.85;;
59907;SDS011;61804;54.926;73.496;2023-02-01T01:29:55;22.70;;;12.52;;
59907;SDS011;61804;54.926;73.496;2023-02-01T01:32:23;30.05;;;14.38;;
59907;SDS011;61804;54.926;73.496;2023-02-01T01:35:01;28.38;;;11.27;;
59907;SDS011;61804;54.926;73.496;2023-02-01T01:37:28;19.40;;;10.52;;
59907;SDS011;61804;54.926;73.496;2023-02-01T01:39:55;16.20;;;9.27;;
59907;SDS011;61804;54.926;73.496;2023-02-01T01:42:24;24.70;;;14.18;;
59907;SDS011;61804;54.926;73.496;2023-02-01T01:44:57;31.00;;;15.57;;
59907;SDS011;61804;54.926;73.496;2023-02-01T01:47:33;34.45;;;18.90;;
59907;SDS011;61804;54.926;73.496;2023-02-01T01:50:13;38.13;;;16.88;;
59907;SDS011;61804;54.926;73.496;2023-02-01T01:52:46;83.30;;;40.90;;
59907;SDS011;61804;54.926;73.496;2023-02-01T01:55:21;45.20;;;28.35;;
59907;SDS011;61804;54.926;73.496;2023-02-01T01:57:56;109.63;;;61.17;;
59907;SDS011;61804;54.926;73.496;2023-02-01T02:00:25;84.47;;;38.10;;
59907;SDS011;61804;54.926;73.496;2023-02-01T02:03:18;55.88;;;33.58;;
59907;SDS011;61804;54.926;73.496;2023-02-01T02:05:47;161.13;;;76.78;;
59907;SDS011;61804;54.926;73.496;2023-02-01T02:08:17;83.10;;;48.22;;
59907;SDS011;61804;54.926;73.496;2023-02-01T02:10:44;93.13;;;52.97;;
59907;SDS011;61804;54.926;73.496;2023-02-01T02:13:32;50.90;;;33.78;;
59907;SDS011;61804;54.926;73.496;2023-02-01T02:21:23;155.32;;;81.30;;
59907;SDS011;61804;54.926;73.496;2023-02-01T02:35:01;63.50;;;32.85;;
59907;SDS011;61804;54.926;73.496;2023-02-01T02:45:55;22.45;;;13.60;;
59907;SDS011;61804;54.926;73.496;2023-02-01T02:48:46;39.35;;;20.00;;
59907;SDS011;61804;54.926;73.496;2023-02-01T02:51:20;30.05;;;19.33;;
59907;SDS011;61804;54.926;73.496;2023-02-01T02:54:13;22.27;;;14.77;;
59907;SDS011;61804;54.926;73.496;2023-02-01T02:56:59;22.80;;;17.50;;
59907;SDS011;61804;54.926;73.496;2023-02-01T02:59:52;17.33;;;12.40;;
59907;SDS011;61804;54.926;73.496;2023-02-01T03:02:38;33.33;;;17.65;;
59907;SDS011;61804;54.926;73.496;2023-02-01T03:05:33;21.77;;;13.95;;
59907;SDS011;61804;54.926;73.496;2023-02-01T03:08:02;17.13;;;11.10;;
59907;SDS011;61804;54.926;73.496;2023-02-01T03:13:15;56.83;;;30.65;;
59907;SDS011;61804;54.926;73.496;2023-02-01T03:18:18;18.70;;;12.88;;
59907;SDS011;61804;54.926;73.496;2023-02-01T03:20:47;18.27;;;13.13;;
59907;SDS011;61804;54.926;73.496;2023-02-01T03:23:18;17.48;;;9.90;;
59907;SDS011;61804;54.926;73.496;2023-02-01T03:25:52;36.88;;;21.02;;
59907;SDS011;61804;54.926;73.496;2023-02-01T03:28:23;70.95;;;36.38;;
59907;SDS011;61804;54.926;73.496;2023-02-01T03:30:56;70.13;;;39.10;;
59907;SDS011;61804;54.926;73.496;2023-02-01T03:33:25;72.30;;;44.70;;
59907;SDS011;61804;54.926;73.496;2023-02-01T03:38:58;51.65;;;27.60;;
59907;SDS011;61804;54.926;73.496;2023-02-01T03:42:03;40.38;;;24.73;;
59907;SDS011;61804;54.926;73.496;2023-02-01T03:44:31;48.92;;;25.98;;
59907;SDS011;61804;54.926;73.496;2023-02-01T03:47:10;62.15;;;34.28;;
59907;SDS011;61804;54.926;73.496;2023-02-01T03:50:01;69.72;;;33.22;;
59907;SDS011;61804;54.926;73.496;2023-02-01T03:55:10;46.42;;;25.42;;
59907;SDS011;61804;54.926;73.496;2023-02-01T03:57:41;23.40;;;14.30;;
59907;SDS011;61804;54.926;73.496;2023-02-01T04:02:54;47.42;;;25.70;;
59907;SDS011;61804;54.926;73.496;2023-02-01T04:05:27;41.92;;;23.13;;
59907;SDS011;61804;54.926;73.496;2023-02-01T04:08:01;55.13;;;35.53;;
59907;SDS011;61804;54.926;73.496;2023-02-01T04:10:28;58.53;;;30.20;;
59907;SDS011;61804;54.926;73.496;2023-02-01T04:12:56;27.58;;;19.80;;
59907;SDS011;61804;54.926;73.496;2023-02-01T04:15:25;28.85;;;18.80;;
59907;SDS011;61804;54.926;73.496;2023-02-01T04:17:52;49.22;;;29.17;;
59907;SDS011;61804;54.926;73.496;2023-02-01T04:20:19;74.60;;;51.10;;
59907;SDS011;61804;54.926;73.496;2023-02-01T04:22:47;57.78;;;37.70;;
59907;SDS011;61804;54.926;73.496;2023-02-01T04:25:14;61.75;;;45.65;;
59907;SDS011;61804;54.926;73.496;2023-02-01T04:27:51;72.78;;;46.75;;
59907;SDS011;61804;54.926;73.496;2023-02-01T04:30:21;62.33;;;45.28;;
59907;SDS011;61804;54.926;73.496;2023-02-01T04:32:50;47.83;;;32.83;;
59907;SDS011;61804;54.926;73.496;2023-02-01T04:35:18;45.03;;;29.60;;
59907;SDS011;61804;54.926;73.496;2023-02-01T04:37:50;30.65;;;19.30;;
59907;SDS011;61804;54.926;73.496;2023-02-01T04:40:22;33.08;;;21.60;;
59907;SDS011;61804;54.926;73.496;2023-02-01T04:42:50;26.17;;;16.58;;
59907;SDS011;61804;54.926;73.496;2023-02-01T04:45:18;27.92;;;23.60;;
59907;SDS011;61804;54.926;73.496;2023-02-01T04:47:45;37.15;;;23.05;;
59907;SDS011;61804;54.926;73.496;2023-02-01T04:50:14;26.05;;;17.60;;
59907;SDS011;61804;54.926;73.496;2023-02-01T04:52:41;26.67;;;15.30;;
59907;SDS011;61804;54.926;73.496;2023-02-01T04:55:10;21.50;;;14.50;;
59907;SDS011;61804;54.926;73.496;2023-02-01T04:57:39;38.03;;;26.52;;
59907;SDS011;61804;54.926;73.496;2023-02-01T05:00:07;28.15;;;22.35;;
59907;SDS011;61804;54.926;73.496;2023-02-01T05:02:45;46.50;;;26.48;;
59907;SDS011;61804;54.926;73.496;2023-02-01T05:05:12;62.15;;;38.00;;
59907;SDS011;61804;54.926;73.496;2023-02-01T05:07:40;53.20;;;33.25;;
59907;SDS011;61804;54.926;73.496;2023-02-01T05:10:12;40.15;;;28.65;;
59907;SDS011;61804;54.926;73.496;2023-02-01T05:12:40;25.17;;;19.10;;
59907;SDS011;61804;54.926;73.496;2023-02-01T05:15:28;30.58;;;18.98;;
59907;SDS011;61804;54.926;73.496;2023-02-01T05:17:55;30.42;;;18.83;;
59907;SDS011;61804;54.926;73.496;2023-02-01T05:20:23;29.05;;;21.63;;
59907;SDS011;61804;54.926;73.496;2023-02-01T05:22:50;36.05;;;26.52;;
59907;SDS011;61804;54.926;73.496;2023-02-01T05:25:19;21.70;;;17.40;;
59907;SDS011;61804;54.926;73.496;2023-02-01T05:27:47;20.17;;;14.82;;
59907;SDS011;61804;54.926;73.496;2023-02-01T05:30:25;17.38;;;13.55;;
59907;SDS011;61804;54.926;73.496;2023-02-01T05:32:52;29.38;;;24.48;;
59907;SDS011;61804;54.926;73.496;2023-02-01T05:35:19;47.17;;;29.98;;
59907;SDS011;61804;54.926;73.496;2023-02-01T05:37:47;23.50;;;13.43;;
59907;SDS011;61804;54.926;73.496;2023-02-01T05:40:25;26.17;;;15.80;;
59907;SDS011;61804;54.926;73.496;2023-02-01T05:42:53;39.78;;;28.35;;
59907;SDS011;61804;54.926;73.496;2023-02-01T05:45:25;33.83;;;22.10;;
59907;SDS011;61804;54.926;73.496;2023-02-01T05:48:02;30.42;;;18.45;;
59907;SDS011;61804;54.926;73.496;2023-02-01T05:50:30;32.97;;;21.00;;
59907;SDS011;61804;54.926;73.496;2023-02-01T05:52:57;75.38;;;52.25;;
59907;SDS011;61804;54.926;73.496;2023-02-01T05:55:25;57.42;;;36.53;;
59907;SDS011;61804;54.926;73.496;2023-02-01T05:57:52;33.97;;;22.23;;
59907;SDS011;61804;54.926;73.496;2023-02-01T06:00:31;37.80;;;26.27;;
59907;SDS011;61804;54.926;73.496;2023-02-01T06:02:59;32.83;;;19.55;;
59907;SDS011;61804;54.926;73.496;2023-02-01T06:05:45;24.65;;;16.00;;
59907;SDS011;61804;54.926;73.496;2023-02-01T06:08:16;25.50;;;15.20;;
59907;SDS011;61804;54.926;73.496;2023-02-01T06:10:44;28.08;;;22.25;;
59907;SDS011;61804;54.926;73.496;2023-02-01T06:13:14;26.55;;;14.65;;
59907;SDS011;61804;54.926;73.496;2023-02-01T06:15:42;29.80;;;17.27;;
59907;SDS011;61804;54.926;73.496;2023-02-01T06:18:11;27.30;;;17.58;;
59907;SDS011;61804;54.926;73.496;2023-02-01T06:20:44;18.60;;;16.38;;
59907;SDS011;61804;54.926;73.496;2023-02-01T06:23:22;31.42;;;19.98;;
59907;SDS011;61804;54.926;73.496;2023-02-01T06:25:52;24.05;;;18.77;;
59907;SDS011;61804;54.926;73.496;2023-02-01T06:28:31;28.13;;;17.63;;
59907;SDS011;61804;54.926;73.496;2023-02-01T06:31:09;29.48;;;22.52;;
59907;SDS011;61804;54.926;73.496;2023-02-01T06:33:37;41.28;;;21.60;;
59907;SDS011;61804;54.926;73.496;2023-02-01T06:36:06;29.23;;;17.08;;
59907;SDS011;61804;54.926;73.496;2023-02-01T06:38:34;26.98;;;15.02;;
59907;SDS011;61804;54.926;73.496;2023-02-01T06:41:03;41.80;;;23.63;;
59907;SDS011;61804;54.926;73.496;2023-02-01T06:43:35;36.50;;;22.95;;
59907;SDS011;61804;54.926;73.496;2023-02-01T06:46:05;42.25;;;22.58;;
59907;SDS011;61804;54.926;73.496;2023-02-01T06:48:33;32.55;;;23.02;;
59907;SDS011;61804;54.926;73.496;2023-02-01T06:51:01;23.85;;;17.60;;
59907;SDS011;61804;54.926;73.496;2023-02-01T06:53:28;29.13;;;19.35;;
59907;SDS011;61804;54.926;73.496;2023-02-01T06:56:08;38.10;;;24.35;;
59907;SDS011;61804;54.926;73.496;2023-02-01T06:58:41;39.53;;;24.02;;
59907;SDS011;61804;54.926;73.496;2023-02-01T07:01:09;24.45;;;14.60;;
59907;SDS011;61804;54.926;73.496;2023-02-01T07:03:39;25.20;;;17.45;;
59907;SDS011;61804;54.926;73.496;2023-02-01T07:06:07;63.35;;;37.25;;
59907;SDS011;61804;54.926;73.496;2023-02-01T07:08:45;38.35;;;19.60;;
59907;SDS011;61804;54.926;73.496;2023-02-01T07:11:12;43.47;;;26.35;;
59907;SDS011;61804;54.926;73.496;2023-02-01T07:13:43;19.45;;;15.38;;
59907;SDS011;61804;54.926;73.496;2023-02-01T07:16:12;10.77;;;9.68;;
59907;SDS011;61804;54.926;73.496;2023-02-01T07:18:41;19.48;;;13.13;;
59907;SDS011;61804;54.926;73.496;2023-02-01T07:21:09;28.40;;;15.00;;
59907;SDS011;61804;54.926;73.496;2023-02-01T07:23:37;38.03;;;25.13;;
59907;SDS011;61804;54.926;73.496;2023-02-01T07:26:06;33.08;;;23.52;;
59907;SDS011;61804;54.926;73.496;2023-02-01T07:28:35;21.52;;;16.33;;
59907;SDS011;61804;54.926;73.496;2023-02-01T07:31:09;23.35;;;16.05;;
59907;SDS011;61804;54.926;73.496;2023-02-01T07:33:44;12.93;;;10.65;;
59907;SDS011;61804;54.926;73.496;2023-02-01T07:36:12;20.40;;;11.63;;
59907;SDS011;61804;54.926;73.496;2023-02-01T07:38:40;17.75;;;12.27;;
59907;SDS011;61804;54.926;73.496;2023-02-01T07:41:19;18.77;;;13.57;;
59907;SDS011;61804;54.926;73.496;2023-02-01T07:43:54;27.38;;;17.95;;
59907;SDS011;61804;54.926;73.496;2023-02-01T07:46:21;22.33;;;12.15;;
59907;SDS011;61804;54.926;73.496;2023-02-01T07:48:55;33.28;;;19.48;;
59907;SDS011;61804;54.926;73.496;2023-02-01T07:51:22;14.90;;;9.52;;
59907;SDS011;61804;54.926;73.496;2023-02-01T07:53:49;17.17;;;10.85;;
59907;SDS011;61804;54.926;73.496;2023-02-01T07:56:20;11.98;;;7.90;;
59907;SDS011;61804;54.926;73.496;2023-02-01T07:58:49;11.43;;;7.82;;
59907;SDS011;61804;54.926;73.496;2023-02-01T08:01:18;18.58;;;11.35;;
59907;SDS011;61804;54.926;73.496;2023-02-01T08:04:01;10.88;;;8.48;;
59907;SDS011;61804;54.926;73.496;2023-02-01T08:06:30;13.70;;;8.68;;
59907;SDS011;61804;54.926;73.496;2023-02-01T08:08:58;16.15;;;9.25;;
59907;SDS011;61804;54.926;73.496;2023-02-01T08:11:26;11.15;;;7.55;;
59907;SDS011;61804;54.926;73.496;2023-02-01T08:13:54;13.45;;;9.82;;
59907;SDS011;61804;54.926;73.496;2023-02-01T08:16:22;21.40;;;13.25;;
59907;SDS011;61804;54.926;73.496;2023-02-01T08:18:53;18.95;;;12.95;;
59907;SDS011;61804;54.926;73.496;2023-02-01T08:21:29;15.35;;;11.63;;
59907;SDS011;61804;54.926;73.496;2023-02-01T08:24:15;17.42;;;11.88;;
59907;SDS011;61804;54.926;73.496;2023-02-01T08:26:43;19.38;;;14.82;;
59907;SDS011;61804;54.926;73.496;2023-02-01T08:29:10;23.10;;;14.40;;
59907;SDS011;61804;54.926;73.496;2023-02-01T08:31:39;15.98;;;11.57;;
59907;SDS011;61804;54.926;73.496;2023-02-01T08:34:17;19.23;;;9.85;;
59907;SDS011;61804;54.926;73.496;2023-02-01T08:36:44;10.80;;;7.90;;
59907;SDS011;61804;54.926;73.496;2023-02-01T08:39:12;18.13;;;9.57;;
59907;SDS011;61804;54.926;73.496;2023-02-01T08:41:39;12.85;;;8.25;;
59907;SDS011;61804;54.926;73.496;2023-02-01T08:44:14;10.52;;;9.43;;
59907;SDS011;61804;54.926;73.496;2023-02-01T08:46:46;15.65;;;8.60;;
59907;SDS011;61804;54.926;73.496;2023-02-01T08:49:18;18.00;;;10.15;;
59907;SDS011;61804;54.926;73.496;2023-02-01T08:51:46;10.65;;;8.70;;
59907;SDS011;61804;54.926;73.496;2023-02-01T08:54:24;14.95;;;8.68;;
59907;SDS011;61804;54.926;73.496;2023-02-01T08:56:52;15.00;;;10.02;;
59907;SDS011;61804;54.926;73.496;2023-02-01T08:59:21;11.48;;;6.97;;
59907;SDS011;61804;54.926;73.496;2023-02-01T09:01:48;14.27;;;10.10;;
59907;SDS011;61804;54.926;73.496;2023-02-01T09:04:18;16.50;;;10.05;;
59907;SDS011;61804;54.926;73.496;2023-02-01T09:06:45;24.05;;;11.48;;
59907;SDS011;61804;54.926;73.496;2023-02-01T09:09:23;12.60;;;9.48;;
59907;SDS011;61804;54.926;73.496;2023-02-01T09:11:54;16.23;;;8.52;;
59907;SDS011;61804;54.926;73.496;2023-02-01T09:14:22;13.80;;;9.13;;
59907;SDS011;61804;54.926;73.496;2023-02-01T09:16:50;37.75;;;18.33;;
59907;SDS011;61804;54.926;73.496;2023-02-01T09:19:18;19.75;;;13.40;;
59907;SDS011;61804;54.926;73.496;2023-02-01T09:21:45;13.27;;;8.15;;
59907;SDS011;61804;54.926;73.496;2023-02-01T09:24:13;11.77;;;9.13;;
59907;SDS011;61804;54.926;73.496;2023-02-01T09:26:40;13.93;;;10.32;;
59907;SDS011;61804;54.926;73.496;2023-02-01T09:29:08;19.50;;;12.00;;
59907;SDS011;61804;54.926;73.496;2023-02-01T09:31:47;20.38;;;9.38;;
59907;SDS011;61804;54.926;73.496;2023-02-01T09:34:20;13.02;;;8.48;;
59907;SDS011;61804;54.926;73.496;2023-02-01T09:36:47;16.20;;;10.18;;
59907;SDS011;61804;54.926;73.496;2023-02-01T09:39:19;17.35;;;8.93;;
59907;SDS011;61804;54.926;73.496;2023-02-01T09:42:10;22.40;;;11.80;;
59907;SDS011;61804;54.926;73.496;2023-02-01T09:44:51;13.45;;;8.70;;
59907;SDS011;61804;54.926;73.496;2023-02-01T09:47:24;17.45;;;10.45;;
59907;SDS011;61804;54.926;73.496;2023-02-01T09:52:38;17.63;;;11.80;;
59907;SDS011;61804;54.926;73.496;2023-02-01T09:55:13;16.75;;;12.57;;
59907;SDS011;61804;54.926;73.496;2023-02-01T10:00:41;36.65;;;20.42;;
59907;SDS011;61804;54.926;73.496;2023-02-01T10:03:12;20.55;;;14.82;;
59907;SDS011;61804;54.926;73.496;2023-02-01T10:14:01;34.60;;;20.88;;
59907;SDS011;61804;54.926;73.496;2023-02-01T10:19:04;21.60;;;13.98;;
59907;SDS011;61804;54.926;73.496;2023-02-01T10:26:57;27.50;;;16.48;;
59907;SDS011;61804;54.926;73.496;2023-02-01T10:29:39;24.83;;;17.63;;
59907;SDS011;61804;54.926;73.496;2023-02-01T10:32:17;20.02;;;17.90;;
59907;SDS011;61804;54.926;73.496;2023-02-01T10:34:51;28.30;;;17.00;;
59907;SDS011;61804;54.926;73.496;2023-02-01T10:37:30;54.00;;;31.35;;
59907;SDS011;61804;54.926;73.496;2023-02-01T10:40:05;38.22;;;20.42;;
59907;SDS011;61804;54.926;73.496;2023-02-01T10:42:36;29.45;;;16.92;;
59907;SDS011;61804;54.926;73.496;2023-02-01T10:45:17;37.00;;;25.90;;
59907;SDS011;61804;54.926;73.496;2023-02-01T10:47:45;36.05;;;23.27;;
59907;SDS011;61804;54.926;73.496;2023-02-01T10:50:16;75.32;;;48.08;;
59907;SDS011;61804;54.926;73.496;2023-02-01T10:55:29;55.33;;;40.63;;
59907;SDS011;61804;54.926;73.496;2023-02-01T10:57:57;125.32;;;74.43;;
59907;SDS011;61804;54.926;73.496;2023-02-01T11:00:25;108.05;;;63.88;;
59907;SDS011;61804;54.926;73.496;2023-02-01T11:03:18;105.53;;;69.55;;
59907;SDS011;61804;54.926;73.496;2023-02-01T11:05:46;139.73;;;88.68;;
59907;SDS011;61804;54.926;73.496;2023-02-01T11:08:16;49.38;;;34.10;;
59907;SDS011;61804;54.926;73.496;2023-02-01T11:10:46;66.95;;;49.88;;
59907;SDS011;61804;54.926;73.496;2023-02-01T11:13:27;78.28;;;52.72;;
59907;SDS011;61804;54.926;73.496;2023-02-01T11:15:59;119.60;;;83.20;;
59907;SDS011;61804;54.926;73.496;2023-02-01T11:18:35;77.63;;;43.13;;
59907;SDS011;61804;54.926;73.496;2023-02-01T11:21:04;58.72;;;35.75;;
59907;SDS011;61804;54.926;73.496;2023-02-01T11:23:32;66.78;;;37.13;;
59907;SDS011;61804;54.926;73.496;2023-02-01T11:26:23;57.97;;;39.08;;
59907;SDS011;61804;54.926;73.496;2023-02-01T11:29:02;31.35;;;18.25;;
59907;SDS011;61804;54.926;73.496;2023-02-01T11:31:30;21.50;;;16.98;;
59907;SDS011;61804;54.926;73.496;2023-02-01T11:33:59;41.50;;;22.88;;
59907;SDS011;61804;54.926;73.496;2023-02-01T11:36:32;50.65;;;27.75;;
59907;SDS011;61804;54.926;73.496;2023-02-01T11:41:40;71.95;;;45.28;;
59907;SDS011;61804;54.926;73.496;2023-02-01T11:44:21;167.60;;;99.03;;
59907;SDS011;61804;54.926;73.496;2023-02-01T11:46:50;112.57;;;70.65;;
59907;SDS011;61804;54.926;73.496;2023-02-01T11:49:21;49.50;;;29.05;;
59907;SDS011;61804;54.926;73.496;2023-02-01T11:54:39;73.50;;;46.10;;
59907;SDS011;61804;54.926;73.496;2023-02-01T11:57:13;113.70;;;76.10;;
59907;SDS011;61804;54.926;73.496;2023-02-01T12:07:57;50.78;;;36.80;;
59907;SDS011;61804;54.926;73.496;2023-02-01T12:18:59;56.83;;;33.00;;
59907;SDS011;61804;54.926;73.496;2023-02-01T12:29:32;41.65;;;24.23;;
59907;SDS011;61804;54.926;73.496;2023-02-01T12:42:31;41.08;;;27.77;;
59907;SDS011;61804;54.926;73.496;2023-02-01T12:55:41;83.30;;;46.47;;
59907;SDS011;61804;54.926;73.496;2023-02-01T12:58:17;74.35;;;39.72;;
59907;SDS011;61804;54.926;73.496;2023-02-01T13:00:54;42.40;;;27.67;;
59907;SDS011;61804;54.926;73.496;2023-02-01T13:03:30;46.40;;;24.70;;
59907;SDS011;61804;54.926;73.496;2023-02-01T13:06:19;43.15;;;23.80;;
59907;SDS011;61804;54.926;73.496;2023-02-01T13:11:18;73.45;;;38.67;;
59907;SDS011;61804;54.926;73.496;2023-02-01T13:16:39;80.57;;;45.20;;
59907;SDS011;61804;54.926;73.496;2023-02-01T13:19:19;103.35;;;56.72;;
59907;SDS011;61804;54.926;73.496;2023-02-01T13:21:58;88.57;;;55.90;;
59907;SDS011;61804;54.926;73.496;2023-02-01T13:24:33;107.75;;;65.78;;
59907;SDS011;61804;54.926;73.496;2023-02-01T13:27:11;99.07;;;51.22;;
59907;SDS011;61804;54.926;73.496;2023-02-01T13:29:55;57.92;;;36.20;;
59907;SDS011;61804;54.926;73.496;2023-02-01T13:38:12;108.25;;;67.05;;
59907;SDS011;61804;54.926;73.496;2023-02-01T13:43:12;127.75;;;60.47;;
59907;SDS011;61804;54.926;73.496;2023-02-01T13:45:52;123.32;;;59.53;;
59907;SDS011;61804;54.926;73.496;2023-02-01T13:48:22;93.93;;;54.17;;
59907;SDS011;61804;54.926;73.496;2023-02-01T13:50:53;101.95;;;62.72;;
59907;SDS011;61804;54.926;73.496;2023-02-01T13:53:34;87.50;;;53.65;;
59907;SDS011;61804;54.926;73.496;2023-02-01T13:56:27;74.72;;;47.63;;
59907;SDS011;61804;54.926;73.496;2023-02-01T13:58:53;71.88;;;45.58;;
59907;SDS011;61804;54.926;73.496;2023-02-01T14:04:00;92.97;;;55.97;;
59907;SDS011;61804;54.926;73.496;2023-02-01T14:19:25;156.65;;;78.72;;
59907;SDS011;61804;54.926;73.496;2023-02-01T14:24:56;161.15;;;76.43;;
59907;SDS011;61804;54.926;73.496;2023-02-01T14:27:25;92.68;;;44.42;;
59907;SDS011;61804;54.926;73.496;2023-02-01T14:29:56;73.45;;;39.60;;
59907;SDS011;61804;54.926;73.496;2023-02-01T14:32:33;65.80;;;36.97;;
59907;SDS011;61804;54.926;73.496;2023-02-01T14:35:39;58.55;;;31.83;;
59907;SDS011;61804;54.926;73.496;2023-02-01T14:38:08;55.90;;;30.60;;
59907;SDS011;61804;54.926;73.496;2023-02-01T14:40:39;43.42;;;27.98;;
59907;SDS011;61804;54.926;73.496;2023-02-01T14:43:12;38.40;;;24.13;;
59907;SDS011;61804;54.926;73.496;2023-02-01T14:51:01;29.05;;;17.65;;
59907;SDS011;61804;54.926;73.496;2023-02-01T14:53:32;31.98;;;19.80;;
59907;SDS011;61804;54.926;73.496;2023-02-01T14:56:12;38.78;;;23.17;;
59907;SDS011;61804;54.926;73.496;2023-02-01T14:58:42;40.65;;;21.05;;
59907;SDS011;61804;54.926;73.496;2023-02-01T15:06:25;26.42;;;18.10;;
59907;SDS011;61804;54.926;73.496;2023-02-01T15:08:54;31.90;;;19.75;;
59907;SDS011;61804;54.926;73.496;2023-02-01T15:11:23;29.35;;;17.08;;
59907;SDS011;61804;54.926;73.496;2023-02-01T15:13:51;41.10;;;19.88;;
59907;SDS011;61804;54.926;73.496;2023-02-01T15:16:21;37.83;;;21.98;;
59907;SDS011;61804;54.926;73.496;2023-02-01T15:18:49;59.35;;;28.65;;
59907;SDS011;61804;54.926;73.496;2023-02-01T15:21:23;46.40;;;23.27;;
59907;SDS011;61804;54.926;73.496;2023-02-01T15:24:09;42.70;;;24.73;;
59907;SDS011;61804;54.926;73.496;2023-02-01T15:26:43;48.40;;;25.23;;
59907;SDS011;61804;54.926;73.496;2023-02-01T15:29:11;52.10;;;26.55;;
59907;SDS011;61804;54.926;73.496;2023-02-01T15:31:50;49.13;;;26.73;;
59907;SDS011;61804;54.926;73.496;2023-02-01T15:34:17;32.40;;;17.10;;
59907;SDS011;61804;54.926;73.496;2023-02-01T15:36:55;28.38;;;15.50;;
59907;SDS011;61804;54.926;73.496;2023-02-01T15:42:28;16.33;;;9.88;;
59907;SDS011;61804;54.926;73.496;2023-02-01T15:44:56;24.17;;;18.77;;
59907;SDS011;61804;54.926;73.496;2023-02-01T15:47:25;24.23;;;13.25;;
59907;SDS011;61804;54.926;73.496;2023-02-01T15:49:58;27.38;;;20.60;;
59907;SDS011;61804;54.926;73.496;2023-02-01T15:54:59;49.17;;;23.10;;
59907;SDS011;61804;54.926;73.496;2023-02-01T15:57:36;57.17;;;29.77;;
59907;SDS011;61804;54.926;73.496;2023-02-01T16:00:17;71.20;;;45.28;;
59907;SDS011;61804;54.926;73.496;2023-02-01T16:02:52;52.22;;;30.85;;
59907;SDS011;61804;54.926;73.496;2023-02-01T16:05:27;58.17;;;31.98;;
59907;SDS011;61804;54.926;73.496;2023-02-01T16:08:03;43.95;;;24.42;;
59907;SDS011;61804;54.926;73.496;2023-02-01T16:10:31;44.58;;;24.10;;
59907;SDS011;61804;54.926;73.496;2023-02-01T16:12:59;71.82;;;32.35;;
59907;SDS011;61804;54.926;73.496;2023-02-01T16:15:28;44.45;;;25.98;;
59907;SDS011;61804;54.926;73.496;2023-02-01T16:18:07;68.25;;;34.15;;
59907;SDS011;61804;54.926;73.496;2023-02-01T16:20:45;46.97;;;23.45;;
59907;SDS011;61804;54.926;73.496;2023-02-01T16:23:23;62.60;;;31.02;;
59907;SDS011;61804;54.926;73.496;2023-02-01T16:25:56;47.28;;;28.50;;
59907;SDS011;61804;54.926;73.496;2023-02-01T16:28:24;57.22;;;30.25;;
59907;SDS011;61804;54.926;73.496;2023-02-01T16:30:53;45.20;;;27.40;;
59907;SDS011;61804;54.926;73.496;2023-02-01T16:33:20;69.35;;;33.75;;
59907;SDS011;61804;54.926;73.496;2023-02-01T16:35:56;61.10;;;32.33;;
59907;SDS011;61804;54.926;73.496;2023-02-01T16:38:34;70.70;;;39.92;;
59907;SDS011;61804;54.926;73.496;2023-02-01T16:41:01;44.95;;;32.40;;
59907;SDS011;61804;54.926;73.496;2023-02-01T16:43:32;45.83;;;27.40;;
59907;SDS011;61804;54.926;73.496;2023-02-01T16:45:59;56.65;;;29.85;;
59907;SDS011;61804;54.926;73.496;2023-02-01T16:48:34;86.25;;;47.60;;
59907;SDS011;61804;54.926;73.496;2023-02-01T16:51:13;101.68;;;64.32;;
59907;SDS011;61804;54.926;73.496;2023-02-01T16:53:53;88.70;;;50.42;;
59907;SDS011;61804;54.926;73.496;2023-02-01T16:56:22;102.72;;;58.13;;
59907;SDS011;61804;54.926;73.496;2023-02-01T16:58:55;83.55;;;51.00;;
59907;SDS011;61804;54.926;73.496;2023-02-01T17:01:28;83.18;;;44.72;;
59907;SDS011;61804;54.926;73.496;2023-02-01T17:04:01;77.60;;;52.53;;
59907;SDS011;61804;54.926;73.496;2023-02-01T17:06:29;93.30;;;56.13;;
59907;SDS011;61804;54.926;73.496;2023-02-01T17:08:59;84.65;;;52.72;;
59907;SDS011;61804;54.926;73.496;2023-02-01T17:11:34;67.43;;;37.67;;
59907;SDS011;61804;54.926;73.496;2023-02-01T17:14:15;42.80;;;27.93;;
59907;SDS011;61804;54.926;73.496;2023-02-01T17:16:49;47.80;;;27.15;;
59907;SDS011;61804;54.926;73.496;2023-02-01T17:19:17;55.97;;;24.98;;
59907;SDS011;61804;54.926;73.496;2023-02-01T17:21:59;57.88;;;28.83;;